sensor_id;sensor_type;location;lat;lon;timestamp;temperature;humidity
25906;DHT22;13713;52.552;13.204;2024-02-23T00:00:11;16.80;99.90
25906;DHT22;13713;52.552;13.204;2024-02-23T00:02:38;16.80;99.90
25906;DHT22;13713;52.552;13.204;2024-02-23T00:05:04;16.80;99.90
25906;DHT22;13713;52.552;13.204;2024-02-23T00:07:33;16.80;99.90
25906;DHT22;13713;52.552;13.204;2024-02-23T00:09:59;16.80;99.90
25906;DHT22;13713;52.552;13.204;2024-02-23T00:12:24;16.80;99.90
25906;DHT22;13713;52.552;13.204;2024-02-23T00:14:50;16.80;99.90
25906;DHT22;13713;52.552;13.204;2024-02-23T00:17:16;16.80;99.90
25906;DHT22;13713;52.552;13.204;2024-02-23T00:19:44;16.80;99.90
25906;DHT22;13713;52.552;13.204;2024-02-23T00:22:10;16.80;99.90
25906;DHT22;13713;52.552;13.204;2024-02-23T00:24:36;16.80;99.90
25906;DHT22;13713;52.552;13.204;2024-02-23T00:27:02;16.80;99.90
25906;DHT22;13713;52.552;13.204;2024-02-23T00:29:28;16.80;99.90
25906;DHT22;13713;52.552;13.204;2024-02-23T00:31:54;16.80;99.90
25906;DHT22;13713;52.552;13.204;2024-02-23T00:34:19;16.80;99.90
25906;DHT22;13713;52.552;13.204;2024-02-23T00:36:45;16.70;99.90
25906;DHT22;13713;52.552;13.204;2024-02-23T00:39:11;16.70;99.90
25906;DHT22;13713;52.552;13.204;2024-02-23T00:41:37;16.80;99.90
25906;DHT22;13713;52.552;13.204;2024-02-23T00:44:03;16.80;99.90
25906;DHT22;13713;52.552;13.204;2024-02-23T00:46:29;16.80;99.90
25906;DHT22;13713;52.552;13.204;2024-02-23T00:48:55;16.70;99.90
25906;DHT22;13713;52.552;13.204;2024-02-23T00:51:21;16.70;99.90
25906;DHT22;13713;52.552;13.204;2024-02-23T00:53:47;16.70;99.90
25906;DHT22;13713;52.552;13.204;2024-02-23T00:56:12;16.70;99.90
25906;DHT22;13713;52.552;13.204;2024-02-23T00:58:39;16.70;99.90
25906;DHT22;13713;52.552;13.204;2024-02-23T01:01:05;16.70;99.90
25906;DHT22;13713;52.552;13.204;2024-02-23T01:03:31;16.70;99.90
25906;DHT22;13713;52.552;13.204;2024-02-23T01:05:57;16.70;99.90
25906;DHT22;13713;52.552;13.204;2024-02-23T01:08:22;16.70;99.90
25906;DHT22;13713;52.552;13.204;2024-02-23T01:10:48;16.70;99.90
25906;DHT22;13713;52.552;13.204;2024-02-23T01:13:14;16.70;99.90
25906;DHT22;13713;52.552;13.204;2024-02-23T01:15:41;16.70;99.90
25906;DHT22;13713;52.552;13.204;2024-02-23T01:18:06;16.70;99.90
25906;DHT22;13713;52.552;13.204;2024-02-23T01:20:33;16.70;99.90
25906;DHT22;13713;52.552;13.204;2024-02-23T01:23:00;16.70;99.90
25906;DHT22;13713;52.552;13.204;2024-02-23T01:25:25;16.70;99.90
25906;DHT22;13713;52.552;13.204;2024-02-23T01:27:51;16.60;99.90
25906;DHT22;13713;52.552;13.204;2024-02-23T01:30:17;16.70;99.90
25906;DHT22;13713;52.552;13.204;2024-02-23T01:32:45;16.60;99.90
25906;DHT22;13713;52.552;13.204;2024-02-23T01:35:11;16.70;99.90
25906;DHT22;13713;52.552;13.204;2024-02-23T01:37:37;16.60;99.90
25906;DHT22;13713;52.552;13.204;2024-02-23T01:40:03;16.60;99.90
25906;DHT22;13713;52.552;13.204;2024-02-23T01:42:29;16.60;99.90
25906;DHT22;13713;52.552;13.204;2024-02-23T01:44:55;16.60;99.90
25906;DHT22;13713;52.552;13.204;2024-02-23T01:47:24;16.60;99.90
25906;DHT22;13713;52.552;13.204;2024-02-23T01:49:51;16.60;99.90
25906;DHT22;13713;52.552;13.204;2024-02-23T01:52:17;16.60;99.90
25906;DHT22;13713;52.552;13.204;2024-02-23T01:54:44;16.60;99.90
25906;DHT22;13713;52.552;13.204;2024-02-23T01:57:10;16.60;99.90
25906;DHT22;13713;52.552;13.204;2024-02-23T01:59:38;16.60;99.90
25906;DHT22;13713;52.552;13.204;2024-02-23T02:02:05;16.60;99.90
25906;DHT22;13713;52.552;13.204;2024-02-23T02:04:31;16.60;99.90
25906;DHT22;13713;52.552;13.204;2024-02-23T02:07:00;16.60;99.90
25906;DHT22;13713;52.552;13.204;2024-02-23T02:09:26;16.60;99.90
25906;DHT22;13713;52.552;13.204;2024-02-23T02:11:52;16.60;99.90
25906;DHT22;13713;52.552;13.204;2024-02-23T02:14:18;16.60;99.90
25906;DHT22;13713;52.552;13.204;2024-02-23T02:16:45;16.60;99.90
25906;DHT22;13713;52.552;13.204;2024-02-23T02:19:11;16.60;99.90
25906;DHT22;13713;52.552;13.204;2024-02-23T02:21:37;16.60;99.90
25906;DHT22;13713;52.552;13.204;2024-02-23T02:24:04;16.60;99.90
25906;DHT22;13713;52.552;13.204;2024-02-23T02:26:34;16.60;99.90
25906;DHT22;13713;52.552;13.204;2024-02-23T02:29:00;16.60;99.90
25906;DHT22;13713;52.552;13.204;2024-02-23T02:31:26;16.60;99.90
25906;DHT22;13713;52.552;13.204;2024-02-23T02:33:52;16.60;99.90
25906;DHT22;13713;52.552;13.204;2024-02-23T02:36:18;16.60;99.90
25906;DHT22;13713;52.552;13.204;2024-02-23T02:38:44;16.60;99.90
25906;DHT22;13713;52.552;13.204;2024-02-23T02:41:09;16.50;99.90
25906;DHT22;13713;52.552;13.204;2024-02-23T02:43:35;16.50;99.90
25906;DHT22;13713;52.552;13.204;2024-02-23T02:46:01;16.50;99.90
25906;DHT22;13713;52.552;13.204;2024-02-23T02:48:27;16.50;99.90
25906;DHT22;13713;52.552;13.204;2024-02-23T02:50:53;16.50;99.90
25906;DHT22;13713;52.552;13.204;2024-02-23T02:53:20;16.50;99.90
25906;DHT22;13713;52.552;13.204;2024-02-23T02:55:45;16.50;99.90
25906;DHT22;13713;52.552;13.204;2024-02-23T02:58:12;16.50;99.90
25906;DHT22;13713;52.552;13.204;2024-02-23T03:00:38;16.50;99.90
25906;DHT22;13713;52.552;13.204;2024-02-23T03:03:04;16.50;99.90
25906;DHT22;13713;52.552;13.204;2024-02-23T03:05:30;16.50;99.90
25906;DHT22;13713;52.552;13.204;2024-02-23T03:07:56;16.50;99.90
25906;DHT22;13713;52.552;13.204;2024-02-23T03:10:22;16.50;99.90
25906;DHT22;13713;52.552;13.204;2024-02-23T03:12:47;16.50;99.90
25906;DHT22;13713;52.552;13.204;2024-02-23T03:15:13;16.50;99.90
25906;DHT22;13713;52.552;13.204;2024-02-23T03:17:39;16.50;99.90
25906;DHT22;13713;52.552;13.204;2024-02-23T03:20:05;16.50;99.90
25906;DHT22;13713;52.552;13.204;2024-02-23T03:22:35;16.50;99.90
25906;DHT22;13713;52.552;13.204;2024-02-23T03:25:02;16.50;99.90
25906;DHT22;13713;52.552;13.204;2024-02-23T03:27:34;16.50;99.90
25906;DHT22;13713;52.552;13.204;2024-02-23T03:30:04;16.40;99.90
25906;DHT22;13713;52.552;13.204;2024-02-23T03:32:30;16.40;99.90
25906;DHT22;13713;52.552;13.204;2024-02-23T03:35:06;16.40;99.90
25906;DHT22;13713;52.552;13.204;2024-02-23T03:37:33;16.40;99.90
25906;DHT22;13713;52.552;13.204;2024-02-23T03:39:59;16.40;99.90
25906;DHT22;13713;52.552;13.204;2024-02-23T03:42:26;16.40;99.90
25906;DHT22;13713;52.552;13.204;2024-02-23T03:44:52;16.40;99.90
25906;DHT22;13713;52.552;13.204;2024-02-23T03:47:19;16.40;99.90
25906;DHT22;13713;52.552;13.204;2024-02-23T03:49:44;16.40;99.90
25906;DHT22;13713;52.552;13.204;2024-02-23T03:52:10;16.40;99.90
25906;DHT22;13713;52.552;13.204;2024-02-23T03:54:36;16.40;99.90
25906;DHT22;13713;52.552;13.204;2024-02-23T03:57:02;16.40;99.90
25906;DHT22;13713;52.552;13.204;2024-02-23T03:59:29;16.40;99.90
25906;DHT22;13713;52.552;13.204;2024-02-23T04:01:54;16.40;99.90
25906;DHT22;13713;52.552;13.204;2024-02-23T04:04:20;16.40;99.90
25906;DHT22;13713;52.552;13.204;2024-02-23T04:06:46;16.50;99.90
25906;DHT22;13713;52.552;13.204;2024-02-23T04:09:12;16.40;99.90
25906;DHT22;13713;52.552;13.204;2024-02-23T04:11:38;16.40;99.90
25906;DHT22;13713;52.552;13.204;2024-02-23T04:14:04;16.40;99.90
25906;DHT22;13713;52.552;13.204;2024-02-23T04:16:31;16.40;99.90
25906;DHT22;13713;52.552;13.204;2024-02-23T04:18:57;16.50;99.90
25906;DHT22;13713;52.552;13.204;2024-02-23T04:21:23;16.40;99.90
25906;DHT22;13713;52.552;13.204;2024-02-23T04:23:49;16.40;99.90
25906;DHT22;13713;52.552;13.204;2024-02-23T04:26:14;16.40;99.90
25906;DHT22;13713;52.552;13.204;2024-02-23T04:28:41;16.40;99.90
25906;DHT22;13713;52.552;13.204;2024-02-23T04:31:08;16.40;99.90
25906;DHT22;13713;52.552;13.204;2024-02-23T04:33:35;16.40;99.90
25906;DHT22;13713;52.552;13.204;2024-02-23T04:36:02;16.40;99.90
25906;DHT22;13713;52.552;13.204;2024-02-23T04:38:31;16.40;99.90
25906;DHT22;13713;52.552;13.204;2024-02-23T04:40:58;16.40;99.90
25906;DHT22;13713;52.552;13.204;2024-02-23T04:43:24;16.40;99.90
25906;DHT22;13713;52.552;13.204;2024-02-23T04:45:51;16.40;99.90
25906;DHT22;13713;52.552;13.204;2024-02-23T04:48:17;16.40;99.90
25906;DHT22;13713;52.552;13.204;2024-02-23T04:50:42;16.40;99.90
25906;DHT22;13713;52.552;13.204;2024-02-23T04:53:08;16.40;99.90
25906;DHT22;13713;52.552;13.204;2024-02-23T04:55:34;16.40;99.90
25906;DHT22;13713;52.552;13.204;2024-02-23T04:58:00;16.40;99.90
25906;DHT22;13713;52.552;13.204;2024-02-23T05:00:26;16.40;99.90
25906;DHT22;13713;52.552;13.204;2024-02-23T05:02:59;16.40;99.90
25906;DHT22;13713;52.552;13.204;2024-02-23T05:05:25;16.40;99.90
25906;DHT22;13713;52.552;13.204;2024-02-23T05:07:51;16.40;99.90
25906;DHT22;13713;52.552;13.204;2024-02-23T05:10:16;16.40;99.90
25906;DHT22;13713;52.552;13.204;2024-02-23T05:12:42;16.40;99.90
25906;DHT22;13713;52.552;13.204;2024-02-23T05:15:08;16.40;99.90
25906;DHT22;13713;52.552;13.204;2024-02-23T05:17:34;16.40;99.90
25906;DHT22;13713;52.552;13.204;2024-02-23T05:20:00;16.40;99.90
25906;DHT22;13713;52.552;13.204;2024-02-23T05:22:32;16.40;99.90
25906;DHT22;13713;52.552;13.204;2024-02-23T05:24:58;16.40;99.90
25906;DHT22;13713;52.552;13.204;2024-02-23T05:27:23;16.40;99.90
25906;DHT22;13713;52.552;13.204;2024-02-23T05:29:49;16.40;99.90
25906;DHT22;13713;52.552;13.204;2024-02-23T05:32:15;16.40;99.90
25906;DHT22;13713;52.552;13.204;2024-02-23T05:34:41;16.40;99.90
25906;DHT22;13713;52.552;13.204;2024-02-23T05:37:08;16.40;99.90
25906;DHT22;13713;52.552;13.204;2024-02-23T05:39:33;16.40;99.90
25906;DHT22;13713;52.552;13.204;2024-02-23T05:41:59;16.40;99.90
25906;DHT22;13713;52.552;13.204;2024-02-23T05:44:25;16.40;99.90
25906;DHT22;13713;52.552;13.204;2024-02-23T05:46:52;16.50;99.90
25906;DHT22;13713;52.552;13.204;2024-02-23T05:49:17;16.50;99.90
25906;DHT22;13713;52.552;13.204;2024-02-23T05:51:43;16.50;99.90
25906;DHT22;13713;52.552;13.204;2024-02-23T05:54:10;16.60;99.90
25906;DHT22;13713;52.552;13.204;2024-02-23T05:56:36;16.60;99.90
25906;DHT22;13713;52.552;13.204;2024-02-23T05:59:03;16.70;99.90
25906;DHT22;13713;52.552;13.204;2024-02-23T06:01:29;16.70;99.90
25906;DHT22;13713;52.552;13.204;2024-02-23T06:03:54;16.80;99.20
25906;DHT22;13713;52.552;13.204;2024-02-23T06:06:20;16.70;92.00
25906;DHT22;13713;52.552;13.204;2024-02-23T06:08:46;16.60;87.30
25906;DHT22;13713;52.552;13.204;2024-02-23T06:11:12;16.40;79.90
25906;DHT22;13713;52.552;13.204;2024-02-23T06:13:38;16.40;78.60
25906;DHT22;13713;52.552;13.204;2024-02-23T06:16:05;16.30;82.70
25906;DHT22;13713;52.552;13.204;2024-02-23T06:18:31;16.50;87.30
25906;DHT22;13713;52.552;13.204;2024-02-23T06:20:56;16.60;90.30
25906;DHT22;13713;52.552;13.204;2024-02-23T06:23:22;16.70;92.30
25906;DHT22;13713;52.552;13.204;2024-02-23T06:25:48;16.80;94.20
25906;DHT22;13713;52.552;13.204;2024-02-23T06:28:14;16.90;94.90
25906;DHT22;13713;52.552;13.204;2024-02-23T06:30:39;17.00;95.00
25906;DHT22;13713;52.552;13.204;2024-02-23T06:33:05;17.10;96.30
25906;DHT22;13713;52.552;13.204;2024-02-23T06:35:31;17.20;96.10
25906;DHT22;13713;52.552;13.204;2024-02-23T06:37:57;17.30;96.70
25906;DHT22;13713;52.552;13.204;2024-02-23T06:40:23;17.30;96.40
25906;DHT22;13713;52.552;13.204;2024-02-23T06:42:49;17.40;96.90
25906;DHT22;13713;52.552;13.204;2024-02-23T06:45:16;17.40;97.10
25906;DHT22;13713;52.552;13.204;2024-02-23T06:47:44;17.50;97.60
25906;DHT22;13713;52.552;13.204;2024-02-23T06:50:10;17.60;97.20
25906;DHT22;13713;52.552;13.204;2024-02-23T06:52:35;17.70;97.40
25906;DHT22;13713;52.552;13.204;2024-02-23T06:55:03;17.70;97.50
25906;DHT22;13713;52.552;13.204;2024-02-23T06:57:29;17.80;97.60
25906;DHT22;13713;52.552;13.204;2024-02-23T06:59:56;17.90;97.70
25906;DHT22;13713;52.552;13.204;2024-02-23T07:02:22;17.90;98.00
25906;DHT22;13713;52.552;13.204;2024-02-23T07:04:48;18.00;98.40
25906;DHT22;13713;52.552;13.204;2024-02-23T07:07:14;18.00;98.30
25906;DHT22;13713;52.552;13.204;2024-02-23T07:09:39;18.00;98.40
25906;DHT22;13713;52.552;13.204;2024-02-23T07:12:06;18.00;98.60
25906;DHT22;13713;52.552;13.204;2024-02-23T07:14:32;18.00;98.30
25906;DHT22;13713;52.552;13.204;2024-02-23T07:16:58;18.00;98.60
25906;DHT22;13713;52.552;13.204;2024-02-23T07:19:24;18.00;98.90
25906;DHT22;13713;52.552;13.204;2024-02-23T07:21:50;17.90;99.20
25906;DHT22;13713;52.552;13.204;2024-02-23T07:24:16;18.00;99.60
25906;DHT22;13713;52.552;13.204;2024-02-23T07:26:43;17.90;99.70
25906;DHT22;13713;52.552;13.204;2024-02-23T07:29:08;17.90;99.90
25906;DHT22;13713;52.552;13.204;2024-02-23T07:31:34;17.90;99.90
25906;DHT22;13713;52.552;13.204;2024-02-23T07:34:00;17.90;99.90
25906;DHT22;13713;52.552;13.204;2024-02-23T07:36:26;17.90;99.90
25906;DHT22;13713;52.552;13.204;2024-02-23T07:38:52;17.90;99.90
25906;DHT22;13713;52.552;13.204;2024-02-23T07:41:18;17.90;99.90
25906;DHT22;13713;52.552;13.204;2024-02-23T07:43:44;17.90;99.90
25906;DHT22;13713;52.552;13.204;2024-02-23T07:46:10;17.90;99.90
25906;DHT22;13713;52.552;13.204;2024-02-23T07:48:36;17.90;99.90
25906;DHT22;13713;52.552;13.204;2024-02-23T07:51:03;17.90;99.90
25906;DHT22;13713;52.552;13.204;2024-02-23T07:53:29;17.90;99.90
25906;DHT22;13713;52.552;13.204;2024-02-23T07:55:55;17.90;99.90
25906;DHT22;13713;52.552;13.204;2024-02-23T07:58:21;18.00;99.90
25906;DHT22;13713;52.552;13.204;2024-02-23T08:00:47;18.00;99.90
25906;DHT22;13713;52.552;13.204;2024-02-23T08:03:13;18.00;99.90
25906;DHT22;13713;52.552;13.204;2024-02-23T08:05:40;18.00;99.90
25906;DHT22;13713;52.552;13.204;2024-02-23T08:08:06;18.10;99.90
25906;DHT22;13713;52.552;13.204;2024-02-23T08:10:32;18.10;99.90
25906;DHT22;13713;52.552;13.204;2024-02-23T08:12:59;18.10;99.90
25906;DHT22;13713;52.552;13.204;2024-02-23T08:15:24;18.20;99.90
25906;DHT22;13713;52.552;13.204;2024-02-23T08:17:50;18.10;99.90
25906;DHT22;13713;52.552;13.204;2024-02-23T08:20:16;18.20;99.90
25906;DHT22;13713;52.552;13.204;2024-02-23T08:22:42;18.20;99.90
25906;DHT22;13713;52.552;13.204;2024-02-23T08:25:08;18.20;99.90
25906;DHT22;13713;52.552;13.204;2024-02-23T08:27:34;18.20;99.90
25906;DHT22;13713;52.552;13.204;2024-02-23T08:30:00;18.30;99.90
25906;DHT22;13713;52.552;13.204;2024-02-23T08:32:25;18.30;99.90
25906;DHT22;13713;52.552;13.204;2024-02-23T08:34:51;18.30;99.90
25906;DHT22;13713;52.552;13.204;2024-02-23T08:37:24;18.20;99.90
25906;DHT22;13713;52.552;13.204;2024-02-23T08:39:50;18.30;99.90
25906;DHT22;13713;52.552;13.204;2024-02-23T08:42:15;18.20;99.90
25906;DHT22;13713;52.552;13.204;2024-02-23T08:44:41;18.20;99.90
25906;DHT22;13713;52.552;13.204;2024-02-23T08:47:07;18.20;99.90
25906;DHT22;13713;52.552;13.204;2024-02-23T08:49:33;18.20;99.90
25906;DHT22;13713;52.552;13.204;2024-02-23T08:51:59;18.20;99.90
25906;DHT22;13713;52.552;13.204;2024-02-23T08:54:25;18.20;99.90
25906;DHT22;13713;52.552;13.204;2024-02-23T08:56:51;18.20;99.90
25906;DHT22;13713;52.552;13.204;2024-02-23T08:59:17;18.30;99.90
25906;DHT22;13713;52.552;13.204;2024-02-23T09:01:42;18.30;99.90
25906;DHT22;13713;52.552;13.204;2024-02-23T09:04:10;18.30;99.90
25906;DHT22;13713;52.552;13.204;2024-02-23T09:06:35;18.30;99.90
25906;DHT22;13713;52.552;13.204;2024-02-23T09:09:01;18.30;99.90
25906;DHT22;13713;52.552;13.204;2024-02-23T09:11:27;18.30;99.90
25906;DHT22;13713;52.552;13.204;2024-02-23T09:13:53;18.30;99.90
25906;DHT22;13713;52.552;13.204;2024-02-23T09:16:19;18.30;99.90
25906;DHT22;13713;52.552;13.204;2024-02-23T09:18:46;18.30;99.90
25906;DHT22;13713;52.552;13.204;2024-02-23T09:21:12;18.30;99.90
25906;DHT22;13713;52.552;13.204;2024-02-23T09:23:37;18.30;99.90
25906;DHT22;13713;52.552;13.204;2024-02-23T09:26:09;18.30;99.90
25906;DHT22;13713;52.552;13.204;2024-02-23T09:28:36;18.30;99.90
25906;DHT22;13713;52.552;13.204;2024-02-23T09:31:02;18.40;99.90
25906;DHT22;13713;52.552;13.204;2024-02-23T09:33:29;18.30;99.90
25906;DHT22;13713;52.552;13.204;2024-02-23T09:35:54;18.30;99.90
25906;DHT22;13713;52.552;13.204;2024-02-23T09:38:21;18.40;99.90
25906;DHT22;13713;52.552;13.204;2024-02-23T09:40:51;18.40;99.90
25906;DHT22;13713;52.552;13.204;2024-02-23T09:43:17;18.40;99.90
25906;DHT22;13713;52.552;13.204;2024-02-23T09:45:44;18.40;99.90
25906;DHT22;13713;52.552;13.204;2024-02-23T09:48:12;18.40;99.90
25906;DHT22;13713;52.552;13.204;2024-02-23T09:50:41;18.50;99.90
25906;DHT22;13713;52.552;13.204;2024-02-23T09:53:08;18.40;99.90
25906;DHT22;13713;52.552;13.204;2024-02-23T09:55:36;18.40;99.90
25906;DHT22;13713;52.552;13.204;2024-02-23T09:58:03;18.50;99.90
25906;DHT22;13713;52.552;13.204;2024-02-23T10:00:30;18.50;99.90
25906;DHT22;13713;52.552;13.204;2024-02-23T10:02:56;18.50;99.90
25906;DHT22;13713;52.552;13.204;2024-02-23T10:05:30;18.50;99.90
25906;DHT22;13713;52.552;13.204;2024-02-23T10:07:56;18.40;99.90
25906;DHT22;13713;52.552;13.204;2024-02-23T10:10:33;18.40;99.90
25906;DHT22;13713;52.552;13.204;2024-02-23T10:13:00;18.50;99.90
25906;DHT22;13713;52.552;13.204;2024-02-23T10:15:29;18.40;99.90
25906;DHT22;13713;52.552;13.204;2024-02-23T10:17:55;18.40;99.90
25906;DHT22;13713;52.552;13.204;2024-02-23T10:20:20;18.40;99.90
25906;DHT22;13713;52.552;13.204;2024-02-23T10:22:47;18.50;99.90
25906;DHT22;13713;52.552;13.204;2024-02-23T10:25:13;18.40;99.90
25906;DHT22;13713;52.552;13.204;2024-02-23T10:27:41;18.40;99.90
25906;DHT22;13713;52.552;13.204;2024-02-23T10:30:08;18.50;99.90
25906;DHT22;13713;52.552;13.204;2024-02-23T10:32:38;18.40;99.90
25906;DHT22;13713;52.552;13.204;2024-02-23T10:35:16;18.40;99.90
25906;DHT22;13713;52.552;13.204;2024-02-23T10:37:49;18.40;99.90
25906;DHT22;13713;52.552;13.204;2024-02-23T10:40:19;18.50;99.90
25906;DHT22;13713;52.552;13.204;2024-02-23T10:42:46;18.50;99.90
25906;DHT22;13713;52.552;13.204;2024-02-23T10:45:20;18.50;99.90
25906;DHT22;13713;52.552;13.204;2024-02-23T10:47:48;18.40;99.90
25906;DHT22;13713;52.552;13.204;2024-02-23T10:50:14;18.40;99.90
25906;DHT22;13713;52.552;13.204;2024-02-23T10:52:44;18.40;99.90
25906;DHT22;13713;52.552;13.204;2024-02-23T10:55:10;18.50;99.90
25906;DHT22;13713;52.552;13.204;2024-02-23T10:57:36;18.40;99.90
25906;DHT22;13713;52.552;13.204;2024-02-23T11:00:03;18.50;99.90
25906;DHT22;13713;52.552;13.204;2024-02-23T11:02:55;18.50;99.90
25906;DHT22;13713;52.552;13.204;2024-02-23T11:05:23;18.50;99.90
25906;DHT22;13713;52.552;13.204;2024-02-23T11:07:49;18.50;99.90
25906;DHT22;13713;52.552;13.204;2024-02-23T11:10:17;18.40;99.90
25906;DHT22;13713;52.552;13.204;2024-02-23T11:12:43;18.40;99.90
25906;DHT22;13713;52.552;13.204;2024-02-23T11:15:09;18.40;99.90
25906;DHT22;13713;52.552;13.204;2024-02-23T11:17:50;18.50;99.90
25906;DHT22;13713;52.552;13.204;2024-02-23T11:20:16;18.40;99.90
25906;DHT22;13713;52.552;13.204;2024-02-23T11:22:42;18.40;99.90
25906;DHT22;13713;52.552;13.204;2024-02-23T11:25:08;18.40;99.90
25906;DHT22;13713;52.552;13.204;2024-02-23T11:27:36;18.40;99.90
25906;DHT22;13713;52.552;13.204;2024-02-23T11:30:07;18.40;99.90
25906;DHT22;13713;52.552;13.204;2024-02-23T11:32:42;18.50;99.90
25906;DHT22;13713;52.552;13.204;2024-02-23T11:35:10;18.40;99.90
25906;DHT22;13713;52.552;13.204;2024-02-23T11:37:49;18.50;99.90
25906;DHT22;13713;52.552;13.204;2024-02-23T11:40:22;18.30;94.30
25906;DHT22;13713;52.552;13.204;2024-02-23T11:42:48;18.00;85.00
25906;DHT22;13713;52.552;13.204;2024-02-23T11:45:14;17.80;79.70
25906;DHT22;13713;52.552;13.204;2024-02-23T11:47:39;17.50;73.40
25906;DHT22;13713;52.552;13.204;2024-02-23T11:50:09;17.40;70.20
25906;DHT22;13713;52.552;13.204;2024-02-23T11:52:38;17.20;69.60
25906;DHT22;13713;52.552;13.204;2024-02-23T11:55:05;17.10;67.70
25906;DHT22;13713;52.552;13.204;2024-02-23T11:57:34;17.10;64.60
25906;DHT22;13713;52.552;13.204;2024-02-23T12:00:04;17.00;63.40
25906;DHT22;13713;52.552;13.204;2024-02-23T12:02:35;16.90;62.00
25906;DHT22;13713;52.552;13.204;2024-02-23T12:05:01;16.80;62.60
25906;DHT22;13713;52.552;13.204;2024-02-23T12:07:29;17.00;74.90
25906;DHT22;13713;52.552;13.204;2024-02-23T12:09:56;17.20;78.80
25906;DHT22;13713;52.552;13.204;2024-02-23T12:12:23;17.40;79.80
25906;DHT22;13713;52.552;13.204;2024-02-23T12:14:49;17.50;82.30
25906;DHT22;13713;52.552;13.204;2024-02-23T12:17:15;17.60;81.90
25906;DHT22;13713;52.552;13.204;2024-02-23T12:19:41;17.70;84.70
25906;DHT22;13713;52.552;13.204;2024-02-23T12:22:07;17.80;83.20
25906;DHT22;13713;52.552;13.204;2024-02-23T12:24:34;17.80;84.40
25906;DHT22;13713;52.552;13.204;2024-02-23T12:27:00;17.90;88.40
25906;DHT22;13713;52.552;13.204;2024-02-23T12:29:26;17.90;85.90
25906;DHT22;13713;52.552;13.204;2024-02-23T12:32:05;17.90;86.50
25906;DHT22;13713;52.552;13.204;2024-02-23T12:34:32;17.90;88.80
25906;DHT22;13713;52.552;13.204;2024-02-23T12:36:57;18.00;90.50
25906;DHT22;13713;52.552;13.204;2024-02-23T12:39:24;18.00;90.90
25906;DHT22;13713;52.552;13.204;2024-02-23T12:41:50;18.10;91.30
25906;DHT22;13713;52.552;13.204;2024-02-23T12:44:16;18.10;92.10
25906;DHT22;13713;52.552;13.204;2024-02-23T12:46:42;18.10;92.50
25906;DHT22;13713;52.552;13.204;2024-02-23T12:49:09;18.10;92.90
25906;DHT22;13713;52.552;13.204;2024-02-23T12:51:35;18.20;92.70
25906;DHT22;13713;52.552;13.204;2024-02-23T12:54:00;18.30;93.20
25906;DHT22;13713;52.552;13.204;2024-02-23T12:56:26;18.30;93.50
25906;DHT22;13713;52.552;13.204;2024-02-23T12:58:55;18.30;93.80
25906;DHT22;13713;52.552;13.204;2024-02-23T13:01:21;18.30;95.10
25906;DHT22;13713;52.552;13.204;2024-02-23T13:03:48;18.30;94.60
25906;DHT22;13713;52.552;13.204;2024-02-23T13:06:14;18.30;95.00
25906;DHT22;13713;52.552;13.204;2024-02-23T13:08:39;18.40;94.80
25906;DHT22;13713;52.552;13.204;2024-02-23T13:11:08;18.40;95.40
25906;DHT22;13713;52.552;13.204;2024-02-23T13:13:33;18.40;96.50
25906;DHT22;13713;52.552;13.204;2024-02-23T13:16:00;18.40;96.20
25906;DHT22;13713;52.552;13.204;2024-02-23T13:18:28;18.40;96.20
25906;DHT22;13713;52.552;13.204;2024-02-23T13:20:54;18.40;96.50
25906;DHT22;13713;52.552;13.204;2024-02-23T13:23:20;18.40;97.00
25906;DHT22;13713;52.552;13.204;2024-02-23T13:25:46;18.50;96.40
25906;DHT22;13713;52.552;13.204;2024-02-23T13:28:12;18.40;97.20
25906;DHT22;13713;52.552;13.204;2024-02-23T13:30:38;18.50;97.50
25906;DHT22;13713;52.552;13.204;2024-02-23T13:33:04;18.40;97.70
25906;DHT22;13713;52.552;13.204;2024-02-23T13:35:31;18.50;98.00
25906;DHT22;13713;52.552;13.204;2024-02-23T13:37:57;18.50;98.00
25906;DHT22;13713;52.552;13.204;2024-02-23T13:40:23;18.50;98.00
25906;DHT22;13713;52.552;13.204;2024-02-23T13:42:49;18.50;98.60
25906;DHT22;13713;52.552;13.204;2024-02-23T13:45:16;18.50;98.90
25906;DHT22;13713;52.552;13.204;2024-02-23T13:47:43;18.50;98.70
25906;DHT22;13713;52.552;13.204;2024-02-23T13:50:20;18.50;99.20
25906;DHT22;13713;52.552;13.204;2024-02-23T13:52:46;18.60;99.40
25906;DHT22;13713;52.552;13.204;2024-02-23T13:55:11;18.60;99.60
25906;DHT22;13713;52.552;13.204;2024-02-23T13:57:37;18.60;99.80
25906;DHT22;13713;52.552;13.204;2024-02-23T14:00:04;18.60;99.70
25906;DHT22;13713;52.552;13.204;2024-02-23T14:02:37;18.60;99.90
25906;DHT22;13713;52.552;13.204;2024-02-23T14:05:03;18.60;99.90
25906;DHT22;13713;52.552;13.204;2024-02-23T14:07:29;18.60;99.90
25906;DHT22;13713;52.552;13.204;2024-02-23T14:09:55;18.60;99.90
25906;DHT22;13713;52.552;13.204;2024-02-23T14:12:21;18.60;99.90
25906;DHT22;13713;52.552;13.204;2024-02-23T14:14:46;18.60;99.90
25906;DHT22;13713;52.552;13.204;2024-02-23T14:17:12;18.60;99.90
25906;DHT22;13713;52.552;13.204;2024-02-23T14:19:38;18.60;99.90
25906;DHT22;13713;52.552;13.204;2024-02-23T14:22:04;18.60;99.90
25906;DHT22;13713;52.552;13.204;2024-02-23T14:24:30;18.50;99.90
25906;DHT22;13713;52.552;13.204;2024-02-23T14:26:56;18.50;99.90
25906;DHT22;13713;52.552;13.204;2024-02-23T14:29:22;18.50;99.90
25906;DHT22;13713;52.552;13.204;2024-02-23T14:31:48;18.50;99.90
25906;DHT22;13713;52.552;13.204;2024-02-23T14:34:14;18.50;99.90
25906;DHT22;13713;52.552;13.204;2024-02-23T14:36:40;18.50;99.90
25906;DHT22;13713;52.552;13.204;2024-02-23T14:39:06;18.50;99.90
25906;DHT22;13713;52.552;13.204;2024-02-23T14:41:32;18.50;99.90
25906;DHT22;13713;52.552;13.204;2024-02-23T14:43:57;18.50;99.90
25906;DHT22;13713;52.552;13.204;2024-02-23T14:46:23;18.50;99.90
25906;DHT22;13713;52.552;13.204;2024-02-23T14:48:49;18.50;99.90
25906;DHT22;13713;52.552;13.204;2024-02-23T14:51:15;18.50;99.90
25906;DHT22;13713;52.552;13.204;2024-02-23T14:53:41;18.60;99.90
25906;DHT22;13713;52.552;13.204;2024-02-23T14:56:08;18.50;99.90
25906;DHT22;13713;52.552;13.204;2024-02-23T14:58:33;18.50;99.90
25906;DHT22;13713;52.552;13.204;2024-02-23T15:00:59;18.60;99.90
25906;DHT22;13713;52.552;13.204;2024-02-23T15:03:25;18.60;99.90
25906;DHT22;13713;52.552;13.204;2024-02-23T15:05:51;18.60;99.90
25906;DHT22;13713;52.552;13.204;2024-02-23T15:08:17;18.60;99.90
25906;DHT22;13713;52.552;13.204;2024-02-23T15:10:43;18.60;99.90